Grayslake, Illinois
Current Conditions -  °F | °C
As of 8:19 PM on Friday 28 Nov 2014 (Local Time) from KUGN Reporting Station
Scattered Clouds Scattered Clouds  
Wind Chill: 26°   Ceiling: Unl
Heat Index: 32°   Visibility: 8mi
Dew Point: 26°   Wind: 7mph
Humidity: 79%   Direction: 180°S
Pressure: 29.94"   Gusts: NA
Location:  42.34°N, 88.04°W
Report Text: KUGN 290219Z AUTO 18006KT 8SM SCT017 00/M03 A2994 RMK AO2 T00001033
Loading
Personal Weather Stations






























Interactive Weather Map New forecast layout! Learn more

10-Day Weather Forecast

Advertisements
Track Severe Weather on mobile